Time;durP1;ratioP1;P1;durP2;ratioP2;P2;SDS_P1;SDS_P2;PMS_P1;PMS_P2;Temp;Humidity;BMP_temperature;BMP_pressure;BME280_temperature;BME280_humidity;BME280_pressure;Samples;Min_cycle;Max_cycle;Signal;HPM_P1;HPM_P2
2021/10/27 00:02:42;;;;;;;7.10;3.92;;;;;;;10.84;71.70;101042.88;8521510;33;20144;-76
2021/10/27 00:07:45;;;;;;;5.75;4.03;;;;;;;10.70;72.78;101051.06;8522387;33;20165;-76
2021/10/27 00:12:49;;;;;;;5.95;3.83;;;;;;;10.75;72.35;101055.16;8532370;33;20263;-75
2021/10/27 00:17:52;;;;;;;8.18;4.68;;;;;;;10.67;73.14;101045.88;8539844;33;21101;-76
2021/10/27 00:22:55;;;;;;;8.38;4.13;;;;;;;10.74;72.97;101056.09;8541469;33;20495;-74
2021/10/27 00:28:00;;;;;;;7.88;5.30;;;;;;;10.77;73.08;101060.41;8536107;33;20575;-76
2021/10/27 00:33:03;;;;;;;8.68;4.40;;;;;;;10.71;73.58;101050.94;8538550;33;20239;-76
2021/10/27 00:38:06;;;;;;;9.48;5.10;;;;;;;10.61;74.21;101061.50;8526013;33;20611;-76
2021/10/27 00:43:10;;;;;;;12.18;5.40;;;;;;;10.63;73.92;101053.31;8525716;33;20191;-77
2021/10/27 00:48:13;;;;;;;9.10;5.68;;;;;;;10.61;74.65;101049.88;8525095;33;20542;-76
2021/10/27 00:53:16;;;;;;;11.48;5.63;;;;;;;10.61;75.01;101058.81;8525177;33;20557;-75
2021/10/27 00:58:21;;;;;;;11.80;6.60;;;;;;;10.42;75.87;101057.50;8525340;33;20952;-76
2021/10/27 01:03:24;;;;;;;11.57;6.63;;;;;;;10.59;76.00;101039.25;8525372;33;20534;-75
2021/10/27 01:08:27;;;;;;;12.15;6.80;;;;;;;10.64;75.36;101049.69;8531869;33;20492;-76
2021/10/27 01:13:32;;;;;;;15.65;7.20;;;;;;;10.55;76.37;101061.06;8538712;33;20432;-76
2021/10/27 01:18:36;;;;;;;17.35;8.07;;;;;;;10.75;76.27;101048.88;8540220;33;20671;-75
2021/10/27 01:23:41;;;;;;;16.63;7.90;;;;;;;10.71;76.83;101048.25;8544864;33;20428;-76
2021/10/27 01:28:44;;;;;;;15.52;9.50;;;;;;;10.75;76.86;101041.72;8545445;33;20145;-76
2021/10/27 01:33:48;;;;;;;16.77;8.98;;;;;;;10.61;77.71;101028.38;8546210;33;20502;-75
2021/10/27 01:38:52;;;;;;;20.50;8.43;;;;;;;10.86;77.01;101030.19;8546360;33;20283;-76
2021/10/27 01:43:58;;;;;;;20.02;9.02;;;;;;;10.66;77.77;101023.53;8541150;33;20436;-76
2021/10/27 01:49:05;;;;;;;17.20;8.32;;;;;;;10.70;77.87;101030.44;8541338;33;20564;-75
2021/10/27 01:54:10;;;;;;;17.30;8.82;;;;;;;10.76;78.33;101023.75;8539906;33;21013;-75
2021/10/27 01:59:13;;;;;;;17.42;9.88;;;;;;;10.76;78.35;101010.31;8534758;33;20597;-76
2021/10/27 02:04:16;;;;;;;21.08;9.73;;;;;;;10.97;77.66;101008.75;8524488;33;20731;-76
2021/10/27 02:09:20;;;;;;;17.45;9.23;;;;;;;10.83;78.28;101009.78;8509106;33;20232;-76
2021/10/27 02:14:24;;;;;;;17.90;9.70;;;;;;;10.88;78.32;101000.50;8526976;33;20450;-76
2021/10/27 02:19:27;;;;;;;16.27;8.88;;;;;;;10.86;78.60;101003.31;8530564;27;20590;-72
2021/10/27 02:24:31;;;;;;;15.75;8.80;;;;;;;10.64;80.07;101033.56;8521358;33;20235;-71
2021/10/27 02:29:35;;;;;;;16.55;9.18;;;;;;;10.55;81.21;101012.69;8485331;33;20493;-72
2021/10/27 02:34:39;;;;;;;16.55;9.38;;;;;;;10.35;82.98;101014.97;8466729;33;20145;-71
2021/10/27 02:39:44;;;;;;;22.08;10.65;;;;;;;10.24;84.28;101004.13;8468205;33;20415;-72
2021/10/27 02:44:47;;;;;;;21.05;12.05;;;;;;;10.28;84.73;101019.03;8481695;34;20347;-71
2021/10/27 02:49:50;;;;;;;21.02;11.45;;;;;;;10.30;84.58;101013.56;8480996;33;20236;-71
2021/10/27 02:54:54;;;;;;;20.30;10.52;;;;;;;10.51;83.71;101009.38;8479302;34;20284;-71
2021/10/27 02:59:57;;;;;;;24.75;12.80;;;;;;;10.63;83.32;101004.94;8465917;33;20481;-71
2021/10/27 03:05:00;;;;;;;19.95;11.93;;;;;;;10.58;82.97;101010.66;8466006;34;20414;-71
2021/10/27 03:10:07;;;;;;;20.20;11.18;;;;;;;10.70;82.48;101017.00;8464362;33;20439;-72
2021/10/27 03:15:10;;;;;;;22.23;12.65;;;;;;;10.74;82.43;101014.94;8468447;34;20229;-72
2021/10/27 03:20:13;;;;;;;20.00;11.70;;;;;;;10.70;82.41;101017.00;8449173;34;20509;-72
2021/10/27 03:25:18;;;;;;;21.42;11.55;;;;;;;10.76;82.32;101003.09;8468506;34;20593;-72
2021/10/27 03:30:21;;;;;;;22.35;11.68;;;;;;;10.89;81.59;101015.66;8468681;33;20237;-71
2021/10/27 03:35:24;;;;;;;21.50;11.85;;;;;;;10.67;82.61;101013.66;8468190;34;20435;-72
2021/10/27 03:40:29;;;;;;;23.25;13.10;;;;;;;10.80;82.22;101019.88;8468949;33;20424;-72
2021/10/27 03:45:32;;;;;;;21.25;12.82;;;;;;;10.82;81.79;101001.81;8469489;34;20161;-72
2021/10/27 03:50:36;;;;;;;21.48;11.32;;;;;;;10.74;82.05;101005.03;8468432;33;20460;-72
2021/10/27 03:55:40;;;;;;;22.90;12.68;;;;;;;10.90;82.25;101015.53;8468533;34;20244;-72
2021/10/27 04:00:43;;;;;;;19.38;9.95;;;;;;;10.93;82.00;101023.38;8465371;33;20491;-72
2021/10/27 04:05:46;;;;;;;21.15;11.52;;;;;;;10.76;82.71;101027.28;8458604;34;20439;-72
2021/10/27 04:10:51;;;;;;;20.92;12.15;;;;;;;10.98;82.01;101034.66;8460728;33;20443;-72
2021/10/27 04:15:54;;;;;;;24.25;12.75;;;;;;;11.01;82.15;101022.84;8463053;34;20224;-72
2021/10/27 04:20:58;;;;;;;24.70;13.88;;;;;;;10.79;83.60;101023.53;8468966;33;20146;-72
2021/10/27 04:26:02;;;;;;;22.02;12.05;;;;;;;10.74;84.31;101031.06;8467144;33;20642;-72
2021/10/27 04:31:06;;;;;;;21.63;13.38;;;;;;;10.54;85.89;101029.81;8465880;33;20523;-72
2021/10/27 04:36:09;;;;;;;26.70;13.02;;;;;;;10.71;85.56;101025.91;8462101;34;20288;-72
2021/10/27 04:41:13;;;;;;;28.10;14.05;;;;;;;10.69;85.55;101030.53;8462477;33;20585;-72
2021/10/27 04:46:16;;;;;;;27.98;14.40;;;;;;;10.77;85.57;101037.06;8469316;33;20911;-72
2021/10/27 04:51:20;;;;;;;23.45;14.05;;;;;;;10.98;84.29;101042.72;8459191;34;20141;-72
2021/10/27 04:56:24;;;;;;;20.67;13.18;;;;;;;11.00;83.89;101037.25;8483088;33;20134;-72
2021/10/27 05:01:27;;;;;;;23.42;12.88;;;;;;;10.90;84.38;101041.56;8483757;33;20283;-72
2021/10/27 05:06:30;;;;;;;25.33;13.65;;;;;;;10.82;85.02;101048.34;8484090;33;20506;-71
2021/10/27 05:11:35;;;;;;;25.85;13.43;;;;;;;10.81;85.70;101051.16;8487264;34;20421;-71
2021/10/27 05:16:38;;;;;;;22.52;13.57;;;;;;;10.65;86.96;101053.22;8487593;33;20153;-72
2021/10/27 05:21:41;;;;;;;28.88;15.02;;;;;;;10.43;88.15;101068.16;8485998;34;20964;-71
2021/10/27 05:26:45;;;;;;;26.58;14.75;;;;;;;10.42;88.21;101063.72;8450631;33;20651;-72
2021/10/27 05:31:48;;;;;;;28.05;15.63;;;;;;;10.51;88.39;101052.38;8477619;34;20484;-72
2021/10/27 05:36:52;;;;;;;27.23;14.55;;;;;;;10.66;87.48;101050.41;8473472;33;20433;-72
2021/10/27 05:41:57;;;;;;;29.83;15.15;;;;;;;10.50;88.66;101031.81;8467374;34;20412;-73
2021/10/27 05:47:00;;;;;;;25.35;14.00;;;;;;;10.69;87.62;101031.38;8467644;33;20971;-72
2021/10/27 05:55:00;;;;;;;27.52;14.18;;;;;;;10.71;87.47;101039.34;8467407;34;21059;-72
2021/10/27 05:57:31;;;;;;;26.45;14.48;;;;;;;10.73;87.73;101046.31;8440547;33;20304;-72
2021/10/27 06:02:34;;;;;;;23.23;13.82;;;;;;;10.78;87.06;101056.75;8489221;33;20149;-72
2021/10/27 06:07:37;;;;;;;23.80;13.43;;;;;;;10.91;86.02;101057.56;8466421;33;20198;-72
2021/10/27 06:12:42;;;;;;;21.70;12.63;;;;;;;11.03;84.92;101061.22;8466481;34;20431;-73
2021/10/27 06:17:45;;;;;;;22.42;12.48;;;;;;;11.08;84.58;101072.50;8465962;33;20407;-72
2021/10/27 06:22:48;;;;;;;23.30;13.52;;;;;;;11.03;84.01;101082.72;8467053;33;20437;-71
2021/10/27 06:28:00;;;;;;;21.00;11.65;;;;;;;10.99;84.25;101086.59;8461014;33;20846;-72
2021/10/27 06:33:06;;;;;;;19.85;11.18;;;;;;;11.21;83.12;101102.06;8466704;34;20321;-72
2021/10/27 06:38:26;;;;;;;20.20;12.15;;;;;;;11.16;83.45;101090.78;8466994;33;20507;-72
2021/10/27 06:48:51;;;;;;;22.65;12.02;;;;;;;11.34;82.26;101107.44;8479380;33;20503;-72
2021/10/27 06:53:55;;;;;;;19.77;12.23;;;;;;;11.17;82.41;101112.22;8481410;33;20147;-72
2021/10/27 06:59:05;;;;;;;19.08;10.30;;;;;;;11.34;81.40;101120.88;8448616;33;20224;-72
2021/10/27 07:15:02;;;;;;;17.88;9.95;;;;;;;11.65;79.94;101128.41;8466059;34;20520;-72
2021/10/27 07:20:07;;;;;;;15.55;8.75;;;;;;;11.70;79.26;101125.38;8470230;33;20208;-72
2021/10/27 07:25:11;;;;;;;13.68;7.90;;;;;;;11.67;78.96;101134.53;8470567;34;20545;-72
2021/10/27 07:30:15;;;;;;;15.00;8.45;;;;;;;11.64;78.73;101142.84;8468702;33;20277;-72
2021/10/27 07:35:24;;;;;;;13.50;8.15;;;;;;;11.80;78.11;101147.97;8468573;34;20190;-72
2021/10/27 07:40:34;;;;;;;13.75;8.18;;;;;;;11.91;77.83;101145.34;8469959;33;20460;-72
2021/10/27 07:45:40;;;;;;;15.60;7.78;;;;;;;11.99;76.87;101155.53;8469718;34;20217;-72
2021/10/27 07:50:43;;;;;;;10.38;7.22;;;;;;;12.05;76.82;101147.00;8469293;33;20649;-73
2021/10/27 07:55:50;;;;;;;12.20;6.95;;;;;;;12.12;75.93;101160.84;8468169;34;21094;-72
2021/10/27 08:00:57;;;;;;;10.38;6.65;;;;;;;12.13;76.18;101162.56;8469209;33;20503;-72
2021/10/27 08:06:04;;;;;;;10.50;5.93;;;;;;;12.16;75.32;101168.59;8470489;34;20154;-72
2021/10/27 08:11:08;;;;;;;9.40;5.32;;;;;;;12.22;75.08;101163.72;8471181;33;20630;-72
2021/10/27 08:16:13;;;;;;;7.97;4.93;;;;;;;12.34;74.75;101152.91;8468872;34;20506;-72
2021/10/27 08:21:16;;;;;;;9.77;5.20;;;;;;;12.42;74.45;101164.91;8540347;28;20580;-76
2021/10/27 08:26:22;;;;;;;9.68;4.90;;;;;;;12.47;74.73;101165.41;8522923;33;20271;-76
2021/10/27 08:31:35;;;;;;;9.45;5.18;;;;;;;12.43;74.03;101155.88;8521785;33;20581;-76
2021/10/27 08:36:40;;;;;;;5.90;4.43;;;;;;;12.79;73.20;101162.94;8520565;33;20557;-76
2021/10/27 08:41:43;;;;;;;7.78;4.57;;;;;;;12.86;72.06;101168.69;8519658;33;21057;-76
2021/10/27 08:46:48;;;;;;;5.97;4.25;;;;;;;13.07;72.00;101172.41;8522645;33;20499;-76
2021/10/27 08:51:51;;;;;;;3.80;3.28;;;;;;;12.60;72.69;101164.34;8526168;33;20141;-76
2021/10/27 08:56:57;;;;;;;7.63;4.00;;;;;;;12.86;71.90;101174.09;8525761;33;20470;-76
2021/10/27 09:02:20;;;;;;;8.02;3.97;;;;;;;12.77;72.12;101179.22;8526597;33;20156;-76
2021/10/27 09:07:29;;;;;;;8.43;3.95;;;;;;;12.99;71.44;101183.78;8525737;33;20528;-77
2021/10/27 09:34:15;;;;;;;4.55;3.13;;;;;;;12.82;71.66;101186.97;8546097;33;20411;-76
2021/10/27 09:39:54;;;;;;;6.95;3.80;;;;;;;13.18;71.10;101185.88;8520596;33;20219;-76
2021/10/27 10:06:48;;;;;;;6.47;3.17;;;;;;;13.08;70.25;101193.00;8458125;33;20437;-76
2021/10/27 10:11:51;;;;;;;7.40;3.72;;;;;;;13.08;69.96;101195.69;8519791;33;20405;-76
2021/10/27 10:16:58;;;;;;;6.05;3.60;;;;;;;13.17;69.85;101192.28;8513573;33;20416;-76
2021/10/27 10:22:04;;;;;;;6.17;3.27;;;;;;;13.24;69.04;101188.09;8514261;33;20511;-76
2021/10/27 10:27:14;;;;;;;7.43;3.47;;;;;;;13.46;68.64;101179.16;8522077;33;20487;-74
2021/10/27 10:32:40;;;;;;;13.65;3.72;;;;;;;13.59;68.00;101172.78;8520909;33;20188;-76
2021/10/27 10:37:53;;;;;;;6.32;3.72;;;;;;;13.59;68.13;101165.53;8523481;33;20535;-76
2021/10/27 10:43:04;;;;;;;3.83;2.85;;;;;;;13.88;66.89;101167.72;8521071;33;20450;-75
2021/10/27 11:27:15;;;;;;;5.82;2.88;;;;;;;14.52;65.35;101156.91;8518660;33;21026;-76
2021/10/27 11:37:45;;;;;;;6.28;2.78;;;;;;;14.48;65.14;101155.47;8525035;33;20239;-76
2021/10/27 11:42:51;;;;;;;5.68;2.40;;;;;;;14.53;64.35;101155.03;8528020;33;20533;-76
2021/10/27 11:47:58;;;;;;;5.32;2.80;;;;;;;14.29;65.77;101156.13;8526943;33;20503;-76
2021/10/27 11:53:05;;;;;;;5.10;2.75;;;;;;;14.64;64.46;101141.47;8528185;33;20483;-76
2021/10/27 11:58:10;;;;;;;5.65;3.28;;;;;;;14.44;65.01;101139.63;8528157;33;20660;-76
2021/10/27 12:03:16;;;;;;;5.57;2.80;;;;;;;14.77;63.55;101135.84;8521784;33;20222;-76
2021/10/27 12:08:35;;;;;;;5.13;2.78;;;;;;;14.78;63.27;101129.44;8521314;33;20582;-76
2021/10/27 12:13:55;;;;;;;2.78;2.45;;;;;;;14.50;63.66;101123.72;8520788;33;20476;-77
2021/10/27 12:19:02;;;;;;;4.05;2.63;;;;;;;15.07;63.27;101120.63;8519674;33;20562;-75
2021/10/27 12:24:05;;;;;;;5.90;2.50;;;;;;;15.41;61.44;101096.84;8523589;33;20156;-76
2021/10/27 12:29:12;;;;;;;4.05;2.42;;;;;;;15.64;61.15;101111.00;8524766;33;20515;-76
2021/10/27 12:34:22;;;;;;;3.92;2.22;;;;;;;15.78;60.58;101104.34;8523815;33;20156;-76
2021/10/27 12:39:41;;;;;;;5.60;2.53;;;;;;;15.78;60.49;101109.75;8524576;33;21121;-76
2021/10/27 12:44:49;;;;;;;6.50;2.22;;;;;;;15.55;60.69;101101.00;8518843;33;20520;-76
2021/10/27 12:50:07;;;;;;;3.47;2.53;;;;;;;15.76;60.71;101101.75;8519100;33;20518;-76
2021/10/27 12:55:31;;;;;;;4.80;2.38;;;;;;;16.04;59.40;101089.22;8521513;33;20497;-75
2021/10/27 13:00:58;;;;;;;2.75;1.98;;;;;;;16.01;59.79;101085.94;8524577;33;20596;-75
2021/10/27 13:06:15;;;;;;;3.05;2.28;;;;;;;16.26;59.43;101087.22;8525213;33;20145;-75
2021/10/27 13:11:35;;;;;;;3.05;2.20;;;;;;;15.88;60.29;101086.25;8526502;33;20568;-76
2021/10/27 13:22:12;;;;;;;2.95;1.88;;;;;;;16.48;58.56;101078.81;8525903;33;20587;-76
2021/10/27 13:32:44;;;;;;;8.05;2.60;;;;;;;16.40;58.90;101075.09;8523188;33;20719;-76
2021/10/27 13:37:47;;;;;;;4.80;2.47;;;;;;;16.93;57.28;101069.94;8525440;33;20698;-76
2021/10/27 13:42:55;;;;;;;3.47;2.53;;;;;;;17.00;57.15;101079.19;8521646;33;20446;-76
2021/10/27 13:48:07;;;;;;;3.45;2.50;;;;;;;16.22;59.01;101085.78;8521566;33;20519;-75
2021/10/27 13:58:55;;;;;;;3.17;2.35;;;;;;;15.30;61.26;101078.81;8521465;33;20283;-76
2021/10/27 14:09:23;;;;;;;4.78;2.33;;;;;;;14.88;62.99;101078.13;8514567;33;20267;-76
2021/10/27 14:14:33;;;;;;;3.65;2.35;;;;;;;14.75;63.70;101075.63;8513285;33;20282;-75
2021/10/27 14:19:49;;;;;;;6.00;2.60;;;;;;;14.88;63.29;101073.56;8571052;28;20615;-76
2021/10/27 15:23:58;;;;;;;2.88;2.60;;;;;;;14.26;65.24;101026.69;8585615;33;20227;-74
2021/10/27 15:29:08;;;;;;;3.47;2.20;;;;;;;14.08;65.80;101028.25;8586510;33;20253;-77
2021/10/27 15:45:10;;;;;;;5.35;2.63;;;;;;;13.92;65.81;101026.88;8578964;33;20958;-76
2021/10/27 15:55:35;;;;;;;6.75;2.67;;;;;;;13.62;66.24;101015.97;8577165;33;20151;-75
2021/10/27 16:00:40;;;;;;;4.38;2.47;;;;;;;13.65;66.59;101021.94;8576995;33;20829;-76
2021/10/27 16:05:46;;;;;;;5.88;3.45;;;;;;;13.41;67.70;101026.69;8577287;33;20596;-76
2021/10/27 16:10:51;;;;;;;4.05;2.38;;;;;;;13.43;67.27;101016.63;8553498;33;20155;-75
2021/10/27 16:15:57;;;;;;;6.10;2.50;;;;;;;13.33;67.96;101026.44;8578486;33;20663;-75
2021/10/27 16:21:03;;;;;;;4.15;2.15;;;;;;;13.06;68.80;101022.34;8577191;33;20441;-76
2021/10/27 16:26:08;;;;;;;5.38;2.72;;;;;;;13.07;68.62;101032.16;8577531;33;20440;-76
2021/10/27 16:31:11;;;;;;;4.28;2.50;;;;;;;12.95;68.75;101033.16;8570235;33;20140;-75
2021/10/27 16:36:14;;;;;;;3.20;2.80;;;;;;;12.93;68.99;101041.34;8572151;33;20230;-75
2021/10/27 16:41:19;;;;;;;4.28;3.05;;;;;;;12.96;68.71;101043.81;8574945;33;21117;-75
2021/10/27 16:46:22;;;;;;;4.22;2.65;;;;;;;12.91;68.90;101048.69;8581252;33;20617;-75
2021/10/27 16:51:25;;;;;;;4.40;3.10;;;;;;;13.00;68.62;101047.97;8596018;33;20243;-75
2021/10/27 16:56:30;;;;;;;3.50;3.15;;;;;;;12.99;68.56;101057.03;8594497;33;20247;-76
2021/10/27 17:01:35;;;;;;;4.93;3.70;;;;;;;12.94;68.47;101059.25;8589746;33;21073;-76
2021/10/27 17:06:38;;;;;;;6.78;3.63;;;;;;;12.93;68.51;101048.59;8582795;33;20156;-77
2021/10/27 17:11:43;;;;;;;7.30;4.20;;;;;;;12.80;68.70;101049.56;8579336;33;20547;-76
2021/10/27 17:16:46;;;;;;;7.88;4.28;;;;;;;12.73;68.87;101050.19;8577386;33;20661;-76
2021/10/27 17:21:50;;;;;;;4.85;3.88;;;;;;;12.57;69.81;101055.94;8575799;33;20502;-76
2021/10/27 17:26:57;;;;;;;6.85;4.22;;;;;;;12.49;70.16;101051.16;8573969;33;20289;-77
2021/10/27 17:32:01;;;;;;;10.88;6.13;;;;;;;12.48;70.00;101048.56;8575300;33;20510;-76
2021/10/27 17:37:04;;;;;;;8.00;4.80;;;;;;;12.38;69.99;101052.00;8569810;33;20599;-76
2021/10/27 17:42:11;;;;;;;6.20;4.38;;;;;;;12.31;70.44;101055.28;8574612;33;20957;-76
2021/10/27 17:47:19;;;;;;;7.97;4.22;;;;;;;12.27;70.47;101067.25;8577453;33;20148;-76
2021/10/27 17:52:29;;;;;;;7.38;3.97;;;;;;;12.18;70.50;101066.13;8579994;33;20418;-76
2021/10/27 18:02:54;;;;;;;8.10;4.03;;;;;;;12.00;70.91;101075.59;8579981;33;20144;-76
2021/10/27 18:07:57;;;;;;;6.50;4.47;;;;;;;11.94;71.00;101077.78;8581019;33;20492;-75
2021/10/27 18:13:03;;;;;;;8.48;5.43;;;;;;;11.92;70.71;101076.19;8579862;33;20525;-75
2021/10/27 18:18:12;;;;;;;10.02;7.43;;;;;;;11.88;70.73;101070.19;8554445;33;20498;-74
2021/10/27 18:36:12;;;;;;;9.75;3.90;;;;;;;11.80;70.71;101069.06;8569577;33;20672;-76
2021/10/27 18:39:55;;;;;;;5.07;3.47;;;;;;;11.70;70.47;101075.09;8393896;34;20481;-76
2021/10/27 18:45:00;;;;;;;5.78;3.40;;;;;;;11.65;70.56;101063.81;8538029;33;20448;-75
2021/10/27 18:50:05;;;;;;;5.68;4.05;;;;;;;11.60;70.49;101073.22;8575277;33;20604;-75
2021/10/27 18:55:15;;;;;;;7.43;3.40;;;;;;;11.52;70.94;101072.91;8576992;33;20504;-76
2021/10/27 19:00:23;;;;;;;7.07;4.53;;;;;;;11.49;71.05;101068.63;8578396;33;20203;-75
2021/10/27 19:10:56;;;;;;;5.68;3.88;;;;;;;11.43;71.27;101067.25;8582687;33;20933;-75
2021/10/27 19:16:02;;;;;;;4.97;4.10;;;;;;;11.38;71.49;101063.19;8584208;33;20135;-75
2021/10/27 19:21:05;;;;;;;8.55;4.50;;;;;;;11.39;71.36;101064.91;8583795;33;20247;-75
2021/10/27 19:26:13;;;;;;;8.25;5.00;;;;;;;11.30;71.46;101060.19;8584532;33;21026;-75
2021/10/27 19:31:31;;;;;;;7.03;4.65;;;;;;;11.26;71.93;101063.13;8584742;33;20175;-76
2021/10/27 20:08:57;;;;;;;6.35;4.18;;;;;;;11.17;71.59;101060.25;8583566;33;20128;-75
2021/10/27 20:19:31;;;;;;;5.88;4.22;;;;;;;11.00;71.60;101061.44;8592862;33;20213;-75
2021/10/27 20:51:29;;;;;;;6.35;4.10;;;;;;;10.60;72.84;101050.84;8589989;33;20521;-76
2021/10/27 20:56:35;;;;;;;6.03;3.95;;;;;;;10.51;72.86;101046.13;8586046;33;20639;-75
2021/10/27 21:01:46;;;;;;;7.55;4.75;;;;;;;10.41;73.37;101045.06;8587956;33;20140;-76
2021/10/27 21:12:30;;;;;;;6.30;3.97;;;;;;;10.30;73.58;101052.03;8593755;33;20168;-75
2021/10/27 21:17:33;;;;;;;6.82;4.20;;;;;;;10.24;73.76;101052.47;8576755;33;20143;-74
2021/10/27 21:22:41;;;;;;;5.50;3.83;;;;;;;10.16;73.93;101052.13;8601773;33;20148;-75
2021/10/27 21:27:49;;;;;;;7.70;4.38;;;;;;;10.07;73.94;101059.00;8607059;33;20144;-75
2021/10/27 21:33:09;;;;;;;8.55;3.92;;;;;;;10.00;74.20;101051.44;8620335;33;20455;-76
2021/10/27 21:43:34;;;;;;;7.85;4.25;;;;;;;10.00;74.37;101056.81;8580727;33;20451;-75
2021/10/27 21:48:37;;;;;;;5.35;4.85;;;;;;;9.99;74.50;101057.78;8606284;33;20448;-75
2021/10/27 21:53:42;;;;;;;6.00;4.13;;;;;;;9.87;74.61;101054.97;8600370;33;20423;-76
2021/10/27 21:58:45;;;;;;;7.05;3.75;;;;;;;9.91;74.73;101040.38;8603392;33;20140;-76
2021/10/27 22:03:48;;;;;;;7.72;4.57;;;;;;;9.92;74.92;101038.53;8602437;33;20536;-75
2021/10/27 22:08:53;;;;;;;7.20;4.30;;;;;;;10.01;74.45;101032.56;8597877;33;20892;-76
2021/10/27 22:13:58;;;;;;;5.75;4.35;;;;;;;9.99;74.47;101029.13;8599081;33;20633;-76
2021/10/27 22:19:02;;;;;;;7.35;4.22;;;;;;;10.02;74.26;101030.75;8598848;33;20537;-75
2021/10/27 22:24:08;;;;;;;8.80;4.50;;;;;;;9.97;74.12;101032.88;8598463;33;20579;-76
2021/10/27 22:29:11;;;;;;;5.07;4.03;;;;;;;9.93;74.06;101025.03;8591257;33;20140;-76
2021/10/27 22:34:15;;;;;;;6.30;4.07;;;;;;;9.96;74.46;101034.72;8560293;33;20421;-75
2021/10/27 22:39:19;;;;;;;7.00;4.15;;;;;;;9.91;74.15;101021.59;8582907;33;20639;-75
2021/10/27 22:44:23;;;;;;;4.95;4.03;;;;;;;9.88;74.56;101023.63;8584073;33;21044;-75
2021/10/27 22:49:26;;;;;;;9.27;4.95;;;;;;;9.85;74.47;101027.34;8580663;33;20466;-76
2021/10/27 22:54:31;;;;;;;9.57;4.32;;;;;;;9.79;74.69;101016.16;8581805;33;20722;-75
2021/10/27 22:59:40;;;;;;;5.38;3.80;;;;;;;9.69;74.43;101022.16;8583527;33;20424;-75
2021/10/27 23:05:02;;;;;;;9.23;4.25;;;;;;;9.62;75.30;101011.94;8583358;33;20907;-75
2021/10/27 23:10:30;;;;;;;5.72;3.80;;;;;;;9.63;75.21;101019.03;8588819;33;20558;-75
2021/10/27 23:42:26;;;;;;;6.35;5.07;;;;;;;9.41;75.98;101011.56;8555394;33;20416;-76
2021/10/27 23:47:29;;;;;;;8.13;4.75;;;;;;;9.40;75.85;101005.31;8582707;33;20544;-75
2021/10/27 23:52:36;;;;;;;6.25;4.40;;;;;;;9.31;75.88;101003.25;8581651;33;20467;-75
2021/10/27 23:57:48;;;;;;;11.98;5.60;;;;;;;9.21;76.15;101005.66;8580978;33;20632;-75
